createdAt,value
2017-11-26T00:01:25.439Z,25.13
2017-11-26T00:03:54.921Z,23.17
2017-11-26T00:06:23.712Z,25.00
2017-11-26T00:08:51.783Z,25.03
2017-11-26T00:11:19.957Z,23.23
2017-11-26T00:13:48.028Z,36.50
2017-11-26T00:16:16.175Z,25.50
2017-11-26T00:18:44.243Z,22.90
2017-11-26T00:21:13.447Z,26.93
2017-11-26T00:23:42.132Z,25.43
2017-11-26T00:26:10.762Z,26.40
2017-11-26T00:28:39.731Z,32.60
2017-11-26T00:31:07.880Z,26.47
2017-11-26T00:33:36.130Z,25.13
2017-11-26T00:36:04.155Z,30.30
2017-11-26T00:38:32.341Z,26.90
2017-11-26T00:41:00.497Z,25.40
2017-11-26T00:43:31.654Z,29.20
2017-11-26T00:46:00.130Z,29.70
2017-11-26T00:48:29.335Z,27.77
2017-11-26T00:50:57.396Z,26.80
2017-11-26T00:53:25.413Z,27.03
2017-11-26T00:55:53.506Z,25.83
2017-11-26T00:58:22.142Z,27.60
2017-11-26T01:00:51.281Z,30.47
2017-11-26T01:03:19.302Z,32.67
2017-11-26T01:05:47.353Z,30.90
2017-11-26T01:08:15.846Z,28.60
2017-11-26T01:10:44.086Z,27.57
2017-11-26T01:13:12.371Z,30.77
2017-11-26T01:15:40.995Z,27.00
2017-11-26T01:18:09.462Z,26.97
2017-11-26T01:20:38.016Z,31.37
2017-11-26T01:23:06.065Z,26.80
2017-11-26T01:25:34.143Z,24.73
2017-11-26T01:28:02.444Z,29.40
2017-11-26T01:30:31.757Z,26.00
2017-11-26T01:32:59.991Z,26.33
2017-11-26T01:35:29.328Z,25.57
2017-11-26T01:37:57.286Z,27.40
2017-11-26T01:40:26.688Z,27.97
2017-11-26T01:42:55.117Z,21.30
2017-11-26T01:45:23.572Z,35.60
2017-11-26T01:47:52.118Z,21.40
2017-11-26T01:50:20.932Z,27.40
2017-11-26T01:52:49.551Z,23.93
2017-11-26T01:55:19.140Z,25.97
2017-11-26T01:57:47.832Z,26.40
2017-11-26T02:00:16.582Z,24.93
2017-11-26T02:02:45.302Z,22.83
2017-11-26T02:05:14.055Z,21.83
2017-11-26T02:07:42.166Z,24.77
2017-11-26T02:10:10.179Z,21.67
2017-11-26T02:12:38.239Z,23.90
2017-11-26T02:15:06.425Z,22.50
2017-11-26T02:17:34.531Z,25.10
2017-11-26T02:20:02.673Z,22.33
2017-11-26T02:22:30.847Z,21.33
2017-11-26T02:24:59.234Z,20.77
2017-11-26T02:27:27.290Z,19.50
2017-11-26T02:29:55.285Z,20.57
2017-11-26T02:32:35.192Z,24.77
2017-11-26T02:35:15.147Z,18.77
2017-11-26T02:37:43.211Z,20.47
2017-11-26T02:40:11.234Z,20.63
2017-11-26T02:42:39.235Z,22.40
2017-11-26T02:45:07.228Z,22.23
2017-11-26T02:47:35.337Z,19.77
2017-11-26T02:50:03.273Z,19.40
2017-11-26T02:52:31.237Z,19.77
2017-11-26T02:54:59.241Z,21.13
2017-11-26T02:57:27.174Z,18.53
2017-11-26T02:59:55.409Z,20.90
2017-11-26T03:02:23.436Z,18.23
2017-11-26T03:04:51.438Z,20.43
2017-11-26T03:07:19.427Z,22.90
2017-11-26T03:09:47.489Z,16.80
2017-11-26T03:12:15.501Z,18.77
2017-11-26T03:14:43.535Z,18.30
2017-11-26T03:17:11.685Z,19.63
2017-11-26T03:19:39.634Z,18.33
2017-11-26T03:22:07.615Z,24.90
2017-11-26T03:24:36.015Z,21.13
2017-11-26T03:27:04.609Z,18.67
2017-11-26T03:29:32.681Z,16.47
2017-11-26T03:32:00.663Z,16.87
2017-11-26T03:34:28.829Z,17.27
2017-11-26T03:36:57.629Z,16.60
2017-11-26T03:39:25.691Z,18.87
2017-11-26T03:41:53.711Z,18.17
2017-11-26T03:44:21.840Z,18.83
2017-11-26T03:46:49.857Z,17.73
2017-11-26T03:49:17.887Z,18.37
2017-11-26T03:51:45.945Z,18.70
2017-11-26T03:54:14.156Z,18.63
2017-11-26T03:56:42.864Z,18.30
2017-11-26T03:59:10.891Z,20.10
2017-11-26T04:01:38.938Z,21.70
2017-11-26T04:04:07.111Z,19.13
2017-11-26T04:06:35.443Z,18.20
2017-11-26T04:09:03.505Z,19.60
2017-11-26T04:11:31.965Z,20.20
2017-11-26T04:14:00.268Z,21.13
2017-11-26T04:16:28.623Z,20.93
2017-11-26T04:18:56.933Z,21.20
2017-11-26T04:21:26.385Z,20.17
2017-11-26T04:23:54.939Z,22.60
2017-11-26T04:26:23.059Z,20.77
2017-11-26T04:28:51.218Z,22.60
2017-11-26T04:31:19.440Z,25.07
2017-11-26T04:33:47.522Z,21.17
2017-11-26T04:36:15.505Z,20.70
2017-11-26T04:38:44.096Z,23.77
2017-11-26T04:41:13.228Z,24.50
2017-11-26T04:43:42.077Z,22.70
2017-11-26T04:46:10.176Z,23.40
2017-11-26T04:48:38.221Z,23.17
2017-11-26T04:51:06.840Z,23.70
2017-11-26T04:53:35.008Z,25.83
2017-11-26T04:56:03.007Z,22.30
2017-11-26T04:58:31.166Z,24.33
2017-11-26T05:00:59.253Z,23.67
2017-11-26T05:03:27.370Z,21.17
2017-11-26T05:05:55.367Z,21.60
2017-11-26T05:08:23.304Z,25.10
2017-11-26T05:10:51.279Z,21.00
2017-11-26T05:13:19.309Z,20.97
2017-11-26T05:15:47.375Z,20.13
2017-11-26T05:18:15.392Z,21.50
2017-11-26T05:20:43.463Z,23.63
2017-11-26T05:23:12.080Z,22.83
2017-11-26T05:25:40.069Z,22.73
2017-11-26T05:28:08.122Z,22.70
2017-11-26T05:30:36.186Z,23.00
2017-11-26T05:33:04.163Z,22.03
2017-11-26T05:35:32.199Z,21.10
2017-11-26T05:38:00.310Z,20.83
2017-11-26T05:40:28.298Z,20.83
2017-11-26T05:42:56.417Z,22.40
2017-11-26T05:45:24.418Z,21.10
2017-11-26T05:47:52.525Z,22.53
2017-11-26T05:50:20.531Z,23.23
2017-11-26T05:52:48.594Z,21.60
2017-11-26T05:55:16.662Z,23.07
2017-11-26T05:57:44.740Z,22.87
2017-11-26T06:00:12.780Z,21.13
2017-11-26T06:02:40.776Z,23.50
2017-11-26T06:05:08.768Z,25.80
2017-11-26T06:07:36.724Z,22.33
2017-11-26T06:10:04.666Z,22.10
2017-11-26T06:12:32.703Z,24.43
2017-11-26T06:15:00.698Z,24.17
2017-11-26T06:17:28.768Z,23.07
2017-11-26T06:19:56.831Z,22.37
2017-11-26T06:22:24.918Z,22.77
2017-11-26T06:24:52.991Z,24.80
2017-11-26T06:27:21.036Z,22.77
2017-11-26T06:29:49.106Z,19.93
2017-11-26T06:32:17.098Z,20.87
2017-11-26T06:34:45.106Z,21.30
2017-11-26T06:37:13.755Z,21.40
2017-11-26T06:39:42.360Z,19.87
2017-11-26T06:42:10.957Z,19.63
2017-11-26T06:44:39.038Z,22.83
2017-11-26T06:47:07.041Z,20.80
2017-11-26T06:49:35.311Z,20.90
2017-11-26T06:52:03.296Z,19.73
2017-11-26T06:54:33.057Z,20.07
2017-11-26T06:57:01.197Z,18.07
2017-11-26T06:59:29.351Z,18.00
2017-11-26T07:01:57.386Z,19.53
2017-11-26T07:04:25.392Z,19.03
2017-11-26T07:06:53.363Z,17.73
2017-11-26T07:09:21.339Z,17.00
2017-11-26T07:11:49.560Z,18.33
2017-11-26T07:14:17.636Z,16.90
2017-11-26T07:16:45.704Z,18.57
2017-11-26T07:19:14.436Z,17.77
2017-11-26T07:21:42.584Z,16.30
2017-11-26T07:24:10.698Z,16.90
2017-11-26T07:26:38.694Z,17.60
2017-11-26T07:29:06.890Z,19.03
2017-11-26T07:31:34.828Z,17.57
2017-11-26T07:34:02.853Z,16.80
2017-11-26T07:36:30.962Z,19.60
2017-11-26T07:38:58.917Z,16.67
2017-11-26T07:41:26.951Z,14.23
2017-11-26T07:43:55.211Z,14.87
2017-11-26T07:46:23.840Z,17.60
2017-11-26T07:48:51.846Z,14.93
2017-11-26T07:51:19.932Z,15.63
2017-11-26T07:53:47.964Z,16.47
2017-11-26T07:56:15.996Z,18.80
2017-11-26T07:58:44.044Z,15.53
2017-11-26T08:01:12.569Z,16.20
2017-11-26T08:03:40.643Z,18.50
2017-11-26T08:06:08.712Z,18.33
2017-11-26T08:08:36.817Z,17.83
2017-11-26T08:11:04.852Z,16.80
2017-11-26T08:13:32.851Z,16.80
2017-11-26T08:16:00.856Z,16.97
2017-11-26T08:18:31.900Z,17.20
2017-11-26T08:20:59.899Z,20.43
2017-11-26T08:23:28.735Z,15.50
2017-11-26T08:25:56.810Z,20.53
2017-11-26T08:28:25.723Z,17.97
2017-11-26T08:30:53.900Z,15.60
2017-11-26T08:33:21.935Z,16.60
2017-11-26T08:35:49.943Z,15.27
2017-11-26T08:38:17.948Z,16.50
2017-11-26T08:40:45.947Z,15.83
2017-11-26T08:43:13.947Z,16.10
2017-11-26T08:45:41.925Z,16.80
2017-11-26T08:48:10.035Z,16.77
2017-11-26T08:50:38.073Z,14.20
2017-11-26T08:53:06.046Z,16.53
2017-11-26T08:55:34.072Z,16.17
2017-11-26T08:58:02.088Z,15.80
2017-11-26T09:00:30.283Z,15.10
2017-11-26T09:02:58.699Z,17.40
2017-11-26T09:05:27.815Z,16.00
2017-11-26T09:08:05.741Z,14.80
2017-11-26T09:10:33.807Z,18.10
2017-11-26T09:13:01.817Z,15.33
2017-11-26T09:15:30.119Z,18.57
2017-11-26T09:17:58.651Z,15.80
2017-11-26T09:20:27.315Z,18.60
2017-11-26T09:22:55.342Z,13.80
2017-11-26T09:25:23.469Z,17.60
2017-11-26T09:27:54.877Z,16.47
2017-11-26T09:30:22.862Z,16.33
2017-11-26T09:32:51.277Z,16.50
2017-11-26T09:35:19.433Z,15.30
2017-11-26T09:37:48.856Z,18.53
2017-11-26T09:40:17.001Z,16.03
2017-11-26T09:42:45.246Z,16.17
2017-11-26T09:45:13.258Z,16.87
2017-11-26T09:47:41.329Z,21.93
2017-11-26T09:50:09.709Z,19.30
2017-11-26T09:52:40.285Z,16.30
2017-11-26T09:55:12.392Z,20.80
2017-11-26T09:57:40.778Z,17.30
2017-11-26T10:00:08.768Z,18.00
2017-11-26T10:02:36.775Z,20.63
2017-11-26T10:05:05.733Z,23.23
2017-11-26T10:07:33.914Z,17.40
2017-11-26T10:10:01.956Z,20.23
2017-11-26T10:12:29.981Z,19.13
2017-11-26T10:14:58.066Z,19.57
2017-11-26T10:17:26.137Z,23.13
2017-11-26T10:19:54.887Z,19.07
2017-11-26T10:22:22.931Z,22.03
2017-11-26T10:24:50.863Z,19.20
2017-11-26T10:27:19.687Z,20.03
2017-11-26T10:29:47.716Z,18.03
2017-11-26T10:32:16.145Z,18.07
2017-11-26T10:34:44.113Z,18.83
2017-11-26T10:37:12.311Z,20.80
2017-11-26T10:39:40.286Z,19.13
2017-11-26T10:42:08.254Z,22.00
2017-11-26T10:44:36.193Z,22.13
2017-11-26T10:47:04.301Z,20.33
2017-11-26T10:49:32.255Z,19.20
2017-11-26T10:52:00.326Z,18.70
2017-11-26T10:54:28.540Z,20.20
2017-11-26T10:56:57.235Z,22.40
2017-11-26T10:59:25.340Z,20.07
2017-11-26T11:01:53.346Z,21.23
2017-11-26T11:04:21.359Z,22.27
2017-11-26T11:06:49.390Z,19.07
2017-11-26T11:09:18.128Z,23.70
2017-11-26T11:11:48.004Z,17.70
2017-11-26T11:14:16.027Z,23.03
2017-11-26T11:16:43.990Z,24.03
2017-11-26T11:19:12.371Z,19.30
2017-11-26T11:21:40.363Z,19.93
2017-11-26T11:24:08.321Z,18.03
2017-11-26T11:26:36.281Z,22.57
2017-11-26T11:29:04.424Z,21.20
2017-11-26T11:31:32.436Z,18.67
2017-11-26T11:34:01.122Z,20.10
2017-11-26T11:36:29.082Z,18.90
2017-11-26T11:38:57.108Z,17.73
2017-11-26T11:41:25.702Z,19.50
2017-11-26T11:43:53.737Z,28.57
2017-11-26T11:46:21.906Z,20.30
2017-11-26T11:48:50.939Z,20.83
2017-11-26T11:51:19.190Z,17.77
2017-11-26T11:53:47.209Z,19.70
2017-11-26T11:56:15.996Z,16.93
2017-11-26T11:58:44.192Z,16.83
2017-11-26T12:01:12.281Z,17.33
2017-11-26T12:03:40.724Z,21.20
2017-11-26T12:06:08.713Z,16.77
2017-11-26T12:08:36.758Z,19.67
2017-11-26T12:11:04.876Z,16.73
2017-11-26T12:13:34.053Z,21.00
2017-11-26T12:16:02.066Z,15.73
2017-11-26T12:18:30.124Z,14.87
2017-11-26T12:20:58.789Z,17.30
2017-11-26T12:23:27.238Z,15.17
2017-11-26T12:25:55.216Z,14.80
2017-11-26T12:28:23.312Z,14.13
2017-11-26T12:30:51.363Z,15.90
2017-11-26T12:33:19.317Z,13.63
2017-11-26T12:35:47.329Z,18.17
2017-11-26T12:38:15.613Z,14.80
2017-11-26T12:40:43.670Z,13.00
2017-11-26T12:43:11.632Z,13.63
2017-11-26T12:45:39.883Z,12.60
2017-11-26T12:48:08.698Z,17.00
2017-11-26T12:50:36.712Z,13.87
2017-11-26T12:53:04.706Z,14.50
2017-11-26T12:55:32.680Z,14.63
2017-11-26T12:58:00.916Z,16.70
2017-11-26T13:00:29.783Z,13.00
2017-11-26T13:02:57.864Z,13.73
2017-11-26T13:05:25.846Z,17.20
2017-11-26T13:07:53.920Z,13.23
2017-11-26T13:10:22.172Z,11.83
2017-11-26T13:12:50.201Z,12.30
2017-11-26T13:15:18.244Z,13.37
2017-11-26T13:17:46.294Z,11.07
2017-11-26T13:20:14.355Z,10.73
2017-11-26T13:22:42.366Z,13.23
2017-11-26T13:25:11.737Z,12.23
2017-11-26T13:27:39.801Z,12.13
2017-11-26T13:30:07.838Z,11.90
2017-11-26T13:32:35.834Z,15.13
2017-11-26T13:35:04.483Z,11.40
2017-11-26T13:37:32.517Z,16.50
2017-11-26T13:40:02.227Z,12.97
2017-11-26T13:42:30.415Z,11.10
2017-11-26T13:44:58.510Z,14.30
2017-11-26T13:47:26.477Z,13.33
2017-11-26T13:49:54.501Z,11.30
2017-11-26T13:52:22.482Z,10.83
2017-11-26T13:54:50.584Z,10.53
2017-11-26T13:57:26.880Z,11.83
2017-11-26T13:59:55.030Z,11.67
2017-11-26T14:02:23.038Z,11.13
2017-11-26T14:04:51.689Z,11.93
2017-11-26T14:07:20.071Z,10.90
2017-11-26T14:09:48.089Z,12.60
2017-11-26T14:12:16.105Z,10.37
2017-11-26T14:14:44.146Z,11.77
2017-11-26T14:17:12.195Z,10.13
2017-11-26T14:19:40.818Z,16.13
2017-11-26T14:22:08.887Z,13.03
2017-11-26T14:24:36.954Z,15.70
2017-11-26T14:27:04.979Z,16.97
2017-11-26T14:29:32.991Z,15.43
2017-11-26T14:32:01.007Z,12.80
2017-11-26T14:34:29.030Z,12.63
2017-11-26T14:36:57.717Z,10.70
2017-11-26T14:39:25.686Z,12.20
2017-11-26T14:41:53.686Z,12.60
2017-11-26T14:44:21.699Z,11.80
2017-11-26T14:46:49.665Z,11.30
2017-11-26T14:49:17.655Z,13.00
2017-11-26T14:51:45.628Z,11.83
2017-11-26T14:54:13.633Z,12.60
2017-11-26T14:56:41.641Z,11.97
2017-11-26T14:59:09.605Z,11.10
2017-11-26T15:01:37.540Z,12.00
2017-11-26T15:04:05.536Z,10.37
2017-11-26T15:06:33.557Z,13.67
2017-11-26T15:09:01.465Z,10.27
2017-11-26T15:11:29.400Z,15.30
2017-11-26T15:13:57.344Z,12.47
2017-11-26T15:16:25.296Z,12.70
2017-11-26T15:18:53.255Z,8.77
2017-11-26T15:21:21.230Z,13.27
2017-11-26T15:23:49.757Z,9.97
2017-11-26T15:26:17.702Z,10.67
2017-11-26T15:28:45.712Z,11.10
2017-11-26T15:31:13.753Z,12.70
2017-11-26T15:33:41.706Z,10.07
2017-11-26T15:36:09.624Z,11.57
2017-11-26T15:38:37.820Z,11.37
2017-11-26T15:41:05.859Z,9.63
2017-11-26T15:43:33.782Z,12.70
2017-11-26T15:46:02.004Z,10.80
2017-11-26T15:48:30.031Z,10.97
2017-11-26T15:50:57.993Z,10.90
2017-11-26T15:53:25.988Z,12.60
2017-11-26T15:55:53.994Z,13.50
2017-11-26T15:58:21.976Z,10.17
2017-11-26T16:00:50.093Z,11.60
2017-11-26T16:03:18.865Z,10.70
2017-11-26T16:05:46.846Z,9.63
2017-11-26T16:08:14.820Z,12.10
2017-11-26T16:10:42.756Z,13.50
2017-11-26T16:13:11.727Z,10.47
2017-11-26T16:15:39.691Z,10.90
2017-11-26T16:18:07.643Z,9.70
2017-11-26T16:20:35.615Z,11.60
2017-11-26T16:23:03.705Z,9.47
2017-11-26T16:25:31.679Z,10.17
2017-11-26T16:27:59.623Z,9.37
2017-11-26T16:30:27.565Z,10.20
2017-11-26T16:32:55.479Z,9.70
2017-11-26T16:35:23.512Z,10.37
2017-11-26T16:37:51.970Z,10.03
2017-11-26T16:40:19.900Z,9.10
2017-11-26T16:42:47.899Z,9.60
2017-11-26T16:45:15.839Z,10.67
2017-11-26T16:47:43.802Z,10.00
2017-11-26T16:50:12.545Z,10.13
2017-11-26T16:52:40.540Z,10.27
2017-11-26T16:55:08.677Z,11.10
2017-11-26T16:57:36.614Z,10.20
2017-11-26T17:00:04.608Z,8.90
2017-11-26T17:02:32.548Z,10.20
2017-11-26T17:05:00.591Z,9.10
2017-11-26T17:07:28.515Z,9.93
2017-11-26T17:09:56.470Z,11.33
2017-11-26T17:12:24.749Z,10.10
2017-11-26T17:14:52.909Z,10.20
2017-11-26T17:17:29.166Z,9.30
2017-11-26T17:19:57.337Z,10.80
2017-11-26T17:22:25.277Z,10.93
2017-11-26T17:24:53.195Z,10.20
2017-11-26T17:27:21.137Z,10.10
2017-11-26T17:29:49.865Z,9.90
2017-11-26T17:32:17.818Z,10.70
2017-11-26T17:34:45.807Z,8.90
2017-11-26T17:37:14.515Z,10.77
2017-11-26T17:39:42.638Z,8.40
2017-11-26T17:42:11.378Z,17.70
2017-11-26T17:44:39.365Z,16.90
2017-11-26T17:47:09.220Z,9.50
2017-11-26T17:49:39.089Z,12.37
2017-11-26T17:52:07.146Z,9.57
2017-11-26T17:54:37.820Z,10.93
2017-11-26T17:57:05.970Z,9.47
2017-11-26T17:59:38.500Z,11.33
2017-11-26T18:02:12.305Z,12.23
2017-11-26T18:04:40.502Z,9.77
2017-11-26T18:07:08.471Z,10.57
2017-11-26T18:09:36.491Z,10.73
2017-11-26T18:12:04.480Z,9.77
2017-11-26T18:14:32.470Z,8.63
2017-11-26T18:17:00.498Z,9.90
2017-11-26T18:19:28.594Z,15.43
2017-11-26T18:21:57.084Z,10.10
2017-11-26T18:24:25.061Z,10.73
2017-11-26T18:26:53.392Z,7.90
2017-11-26T18:29:21.439Z,7.63
2017-11-26T18:31:49.509Z,7.50
2017-11-26T18:34:18.385Z,7.20
2017-11-26T18:36:46.423Z,9.40
2017-11-26T18:39:15.733Z,10.77
2017-11-26T18:41:44.003Z,6.40
2017-11-26T18:44:12.491Z,7.37
2017-11-26T18:46:40.659Z,8.37
2017-11-26T18:49:09.702Z,7.40
2017-11-26T18:51:37.768Z,6.70
2017-11-26T18:54:05.809Z,6.90
2017-11-26T18:56:36.269Z,6.70
2017-11-26T18:59:05.830Z,6.20
2017-11-26T19:01:34.738Z,8.40
2017-11-26T19:04:03.490Z,8.80
2017-11-26T19:06:31.617Z,9.43
2017-11-26T19:08:59.722Z,7.73
2017-11-26T19:11:27.701Z,9.20
2017-11-26T19:13:57.902Z,8.20
2017-11-26T19:16:28.534Z,7.23
2017-11-26T19:18:56.524Z,11.10
2017-11-26T19:21:24.672Z,9.23
2017-11-26T19:23:53.651Z,7.53
2017-11-26T19:26:22.589Z,7.73
2017-11-26T19:28:50.612Z,9.40
2017-11-26T19:31:19.414Z,7.00
2017-11-26T19:33:47.987Z,6.47
2017-11-26T19:36:15.930Z,6.73
2017-11-26T19:38:43.917Z,5.80
2017-11-26T19:41:11.836Z,8.10
2017-11-26T19:43:39.803Z,5.43
2017-11-26T19:46:07.814Z,8.00
2017-11-26T19:48:35.757Z,5.17
2017-11-26T19:51:03.782Z,5.37
2017-11-26T19:53:32.962Z,5.97
2017-11-26T19:56:00.947Z,5.57
2017-11-26T19:58:38.820Z,5.17
2017-11-26T20:01:06.761Z,6.07
2017-11-26T20:03:34.720Z,6.03
2017-11-26T20:06:02.713Z,7.03
2017-11-26T20:08:30.689Z,5.80
2017-11-26T20:10:58.656Z,9.40
2017-11-26T20:13:26.637Z,8.37
2017-11-26T20:15:54.616Z,7.17
2017-11-26T20:18:23.411Z,7.40
2017-11-26T20:20:51.348Z,8.63
2017-11-26T20:23:19.388Z,6.63
2017-11-26T20:25:48.217Z,7.27
2017-11-26T20:28:16.285Z,6.90
2017-11-26T20:30:44.193Z,7.03
2017-11-26T20:33:12.144Z,6.77
2017-11-26T20:35:40.162Z,6.97
2017-11-26T20:38:08.817Z,7.37
2017-11-26T20:40:36.732Z,5.30
2017-11-26T20:43:04.744Z,8.53
2017-11-26T20:45:32.928Z,5.73
2017-11-26T20:48:00.927Z,10.97
2017-11-26T20:50:28.953Z,8.67
2017-11-26T20:52:56.943Z,7.07
2017-11-26T20:55:24.919Z,7.30
2017-11-26T20:57:53.837Z,6.53
2017-11-26T21:00:21.802Z,6.33
2017-11-26T21:02:49.920Z,7.70
2017-11-26T21:05:18.741Z,9.57
2017-11-26T21:07:47.040Z,6.40
2017-11-26T21:10:15.132Z,9.20
2017-11-26T21:12:43.086Z,8.77
2017-11-26T21:15:12.028Z,8.97
2017-11-26T21:17:39.992Z,7.40
2017-11-26T21:20:08.580Z,6.63
2017-11-26T21:22:36.567Z,8.47
2017-11-26T21:25:04.481Z,8.30
2017-11-26T21:27:32.765Z,6.40
2017-11-26T21:30:00.702Z,7.63
2017-11-26T21:32:29.291Z,9.17
2017-11-26T21:34:57.237Z,7.07
2017-11-26T21:37:25.205Z,5.20
2017-11-26T21:39:53.175Z,7.20
2017-11-26T21:42:21.297Z,4.03
2017-11-26T21:44:49.376Z,4.50
2017-11-26T21:47:17.535Z,10.53
2017-11-26T21:49:45.628Z,9.00
2017-11-26T21:52:13.576Z,12.87
2017-11-26T21:54:42.169Z,9.70
2017-11-26T21:57:10.179Z,6.73
2017-11-26T21:59:38.852Z,8.03
2017-11-26T22:02:07.686Z,10.90
2017-11-26T22:04:36.815Z,6.30
2017-11-26T22:07:05.524Z,10.87
2017-11-26T22:09:33.544Z,10.70
2017-11-26T22:12:01.692Z,8.30
2017-11-26T22:14:29.662Z,11.60
2017-11-26T22:16:57.660Z,7.67
2017-11-26T22:19:25.763Z,9.30
2017-11-26T22:21:53.980Z,7.40
2017-11-26T22:24:22.123Z,9.00
2017-11-26T22:26:50.164Z,7.77
2017-11-26T22:29:18.084Z,9.40
2017-11-26T22:31:46.100Z,12.67
2017-11-26T22:34:14.113Z,8.40
2017-11-26T22:36:42.127Z,10.90
2017-11-26T22:39:11.482Z,9.70
2017-11-26T22:41:39.462Z,10.00
2017-11-26T22:44:07.487Z,11.07
2017-11-26T22:46:35.477Z,10.30
2017-11-26T22:49:03.510Z,8.90
2017-11-26T22:51:31.470Z,11.80
2017-11-26T22:53:59.467Z,8.37
2017-11-26T22:56:27.829Z,9.27
2017-11-26T22:58:56.349Z,6.23
2017-11-26T23:01:24.378Z,4.87
2017-11-26T23:03:52.372Z,5.27
2017-11-26T23:06:20.386Z,3.87
2017-11-26T23:08:48.456Z,4.90
2017-11-26T23:11:16.424Z,6.67
2017-11-26T23:13:45.740Z,4.90
2017-11-26T23:16:14.090Z,2.80
2017-11-26T23:18:42.088Z,2.80
2017-11-26T23:21:10.636Z,2.47
2017-11-26T23:23:38.757Z,3.57
2017-11-26T23:26:07.039Z,3.23
2017-11-26T23:28:35.207Z,3.10
2017-11-26T23:31:03.482Z,4.67
2017-11-26T23:33:31.484Z,4.23
2017-11-26T23:35:59.604Z,2.70
2017-11-26T23:38:27.592Z,3.97
2017-11-26T23:40:56.419Z,2.47
2017-11-26T23:43:24.490Z,2.40
2017-11-26T23:45:52.684Z,4.07
2017-11-26T23:48:20.856Z,3.93
2017-11-26T23:50:49.040Z,5.93
2017-11-26T23:53:20.178Z,5.20
2017-11-26T23:55:48.196Z,9.50
2017-11-26T23:58:16.151Z,6.10
